Christina O — C6FN7 — position and weather

sailwx.info

Track history (hours):
 
Tides and Currents Weather Stations Pressure Air Temp Water Temp Dewpoint Dewpoint Depression Visibility Wind Speed Wind Dir Waves Ship Positions

Christina O

Operator: V Ships Leisure SAM

Last reported at 2018-Sep-17 10:10 UTC. Time now 2018-Sep-19 03:05 UTC.
Position N 37°23' E 023°41'.

Length 186 m; draft 6.1 m.

Type: Passenger vessel. MMSI: 308322000.

Date/timePositionNaut miles runAvg speedWind from/ knotsBaromVisibWave heightAir tempDewpointWater temp
2018-Sep-17 10:10N 37°23' E 023°41'4 6.0
2018-Sep-17 09:31N 37°24' E 023°36'1 6.3
2018-Sep-17 09:24N 37°24' E 023°35'2 5.7
2018-Sep-17 09:03N 37°24' E 023°32'0 6.2
2018-Sep-17 09:00N 37°24' E 023°32'4 3.7
2018-Sep-17 08:03N 37°22' E 023°28'0 3.8
2018-Sep-17 08:00N 37°22' E 023°28'4 6.4
2018-Sep-17 07:27N 37°24' E 023°32'410.9
2018-Sep-17 07:03N 37°27' E 023°36'111.8
2018-Sep-17 07:00N 37°28' E 023°36'611.7
2018-Sep-17 06:30N 37°33' E 023°39'4 9.9
2018-Sep-17 06:03N 37°37' E 023°41'0 9.5
2018-Sep-17 06:00N 37°37' E 023°42'5 9.6
2018-Sep-17 05:30N 37°42' E 023°40'510.7
2018-Sep-17 05:03N 37°47' E 023°38'110.6
2018-Sep-17 05:00N 37°47' E 023°38'510.1
2018-Sep-17 04:30N 37°52' E 023°37'4 9.8
2018-Sep-17 04:03N 37°56' E 023°38'0 5.6
2018-Sep-17 04:00N 37°56' E 023°38'0 0.3
2018-Sep-17 03:29N 37°56' E 023°38'0 0.0
2018-Sep-17 03:02N 37°56' E 023°38'0 0.0
2018-Sep-17 02:59N 37°56' E 023°38'0 0.0
2018-Sep-17 02:29N 37°56' E 023°38'0 0.0
2018-Sep-17 02:02N 37°56' E 023°38'0 0.1
2018-Sep-17 01:59N 37°56' E 023°38'0 0.0
2018-Sep-17 01:29N 37°56' E 023°38'0 0.1
2018-Sep-17 01:02N 37°56' E 023°38'0 0.4
2018-Sep-17 00:59N 37°56' E 023°38'0 0.0
2018-Sep-17 00:29N 37°56' E 023°38'0 0.0
2018-Sep-17 00:02N 37°56' E 023°38'0 0.0
2018-Sep-16 23:59N 37°56' E 023°38'0 0.0
2018-Sep-16 23:29N 37°56' E 023°38'0 0.0
2018-Sep-16 23:02N 37°56' E 023°38'0 0.4
2018-Sep-16 22:59N 37°56' E 023°38'0 0.0
2018-Sep-16 22:29N 37°56' E 023°38'0 0.0
2018-Sep-16 22:02N 37°56' E 023°38'0 0.2
2018-Sep-16 21:59N 37°56' E 023°38'0 0.0
2018-Sep-16 21:29N 37°56' E 023°38'0 0.0
2018-Sep-16 21:02N 37°56' E 023°38'0 0.1
2018-Sep-16 20:59N 37°56' E 023°38'0 0.0
2018-Sep-16 20:29N 37°56' E 023°38'0 0.0
2018-Sep-16 20:02N 37°56' E 023°38'0 0.0
2018-Sep-16 19:59N 37°56' E 023°38'0 0.0
2018-Sep-16 19:29N 37°56' E 023°38'0 0.0
2018-Sep-16 19:02N 37°56' E 023°38'0 0.1
2018-Sep-16 18:59N 37°56' E 023°38'0 0.0
2018-Sep-16 18:29N 37°56' E 023°38'0 0.0
2018-Sep-16 18:02N 37°56' E 023°38'0 0.1
2018-Sep-16 17:59N 37°56' E 023°38'0 0.0
2018-Sep-16 17:29N 37°56' E 023°38'0 0.0
2018-Sep-16 17:02N 37°56' E 023°38'0 0.0
2018-Sep-16 16:59N 37°56' E 023°38'0 0.0
2018-Sep-16 16:29N 37°56' E 023°38'0 0.0
2018-Sep-16 16:02N 37°56' E 023°38'0 0.0
2018-Sep-16 15:59N 37°56' E 023°38'0 0.0
2018-Sep-16 15:29N 37°56' E 023°38'0 0.0
2018-Sep-16 15:02N 37°56' E 023°38'0 0.0
2018-Sep-16 14:59N 37°56' E 023°38'0 0.0
2018-Sep-16 13:59N 37°56' E 023°38'0 0.0
2018-Sep-16 13:29N 37°56' E 023°38'0 0.0
2018-Sep-16 13:02N 37°56' E 023°38'0 0.1
2018-Sep-16 12:59N 37°56' E 023°38'0 0.0
2018-Sep-16 12:29N 37°56' E 023°38'0 0.1
2018-Sep-16 12:02N 37°56' E 023°38'0 0.4
2018-Sep-16 11:59N 37°56' E 023°38'0 0.0
2018-Sep-16 11:29N 37°56' E 023°38'0 0.0
2018-Sep-16 11:02N 37°56' E 023°38'0 0.4
2018-Sep-16 10:59N 37°56' E 023°38'0 0.0
2018-Sep-16 10:29N 37°56' E 023°38'0 0.0
2018-Sep-16 10:02N 37°56' E 023°38'0 0.0
2018-Sep-16 09:59N 37°56' E 023°38'0 0.0
2018-Sep-16 09:29N 37°56' E 023°38'0 0.0
2018-Sep-16 09:02N 37°56' E 023°38'0 0.5
2018-Sep-16 08:59N 37°56' E 023°38'0 0.0
2018-Sep-16 08:29N 37°56' E 023°38'0 0.0
2018-Sep-16 08:02N 37°56' E 023°38'0 0.0
2018-Sep-16 07:59N 37°56' E 023°38'0 0.0
2018-Sep-16 07:29N 37°56' E 023°38'0 0.0
2018-Sep-16 07:02N 37°56' E 023°38'0 0.0
2018-Sep-16 06:59N 37°56' E 023°38'0 0.0
2018-Sep-16 06:29N 37°56' E 023°38'0 0.0
2018-Sep-16 06:02N 37°56' E 023°38'0 0.4
2018-Sep-16 05:59N 37°56' E 023°38'0 0.0
2018-Sep-16 05:29N 37°56' E 023°38'0 0.0
2018-Sep-16 05:02N 37°56' E 023°38'0 0.0
2018-Sep-16 04:59N 37°56' E 023°38'0 0.0
2018-Sep-16 04:29N 37°56' E 023°38'0 0.0
2018-Sep-16 04:04N 37°56' E 023°38'0 0.1
2018-Sep-16 04:00N 37°56' E 023°38'2 3.0
2018-Sep-16 03:30N 37°56' E 023°36'1 1.2
2018-Sep-16 03:04N 37°55' E 023°36'0 0.5
2018-Sep-16 03:01N 37°55' E 023°36'5 9.6
2018-Sep-16 02:31N 37°51' E 023°39'511.8
2018-Sep-16 02:04N 37°46' E 023°42'112.2
2018-Sep-16 02:01N 37°45' E 023°42'612.0
2018-Sep-16 01:30N 37°40' E 023°45'612.1
2018-Sep-16 01:01N 37°34' E 023°44'012.7
2018-Sep-16 00:59N 37°34' E 023°44'612.3
2018-Sep-16 00:28N 37°27' E 023°43'712.1
2018-Sep-15 23:51N 37°20' E 023°40'812.1
2018-Sep-15 23:10N 37°14' E 023°33'112.2
2018-Sep-15 23:04N 37°13' E 023°32'112.0
2018-Sep-15 23:01N 37°13' E 023°31'612.0
2018-Sep-15 22:30N 37°09' E 023°25'612.2
2018-Sep-15 22:02N 37°09' E 023°18'012.7
2018-Sep-15 22:00N 37°09' E 023°18'28 1.5
2018-Sep-15 03:26N 37°27' E 022°51'511.5
2018-Sep-15 03:01N 37°23' E 022°54'711.5
2018-Sep-15 02:25N 37°17' E 022°58'1510.5
2018-Sep-15 01:00N 37°09' E 023°14'611.5
2018-Sep-15 00:28N 37°09' E 023°22'511.6
2018-Sep-15 00:01N 37°10' E 023°29'011.6
2018-Sep-14 23:59N 37°10' E 023°29'6211.4
2018-Sep-14 18:36N 37°18' E 024°46'111.2
2018-Sep-14 18:30N 37°19' E 024°47'511.5
2018-Sep-14 18:03N 37°20' E 024°53'111.6
2018-Sep-14 18:00N 37°20' E 024°54'611.4
2018-Sep-14 17:30N 37°22' E 025°00'511.4
2018-Sep-14 17:03N 37°25' E 025°06'111.6
2018-Sep-14 17:00N 37°25' E 025°06'611.7
2018-Sep-14 16:30N 37°29' E 025°12'511.9
2018-Sep-14 16:03N 37°33' E 025°17'111.6
2018-Sep-14 16:00N 37°33' E 025°18'611.5
2018-Sep-14 15:30N 37°37' E 025°23'511.4
2018-Sep-14 15:03N 37°40' E 025°28'111.5
2018-Sep-14 15:00N 37°41' E 025°29'611.6
2018-Sep-14 14:30N 37°44' E 025°34'611.6
2018-Sep-14 14:00N 37°48' E 025°40'26 0.6
2018-Sep-12 18:25N 37°26' E 025°55'411.1
2018-Sep-12 18:03N 37°26' E 025°50'111.4
2018-Sep-12 18:00N 37°26' E 025°50'611.7
2018-Sep-12 17:30N 37°28' E 025°43'512.0
2018-Sep-12 17:03N 37°30' E 025°37'112.2
2018-Sep-12 17:00N 37°30' E 025°36'612.6
2018-Sep-12 16:31N 37°33' E 025°29'510.0
2018-Sep-12 16:04N 37°32' E 025°23'110.4
2018-Sep-12 16:00N 37°32' E 025°22'4 8.0
2018-Sep-12 15:31N 37°30' E 025°18'4 8.0
2018-Sep-12 15:04N 37°27' E 025°19'0 1.1
2018-Sep-12 15:00N 37°27' E 025°19'0 0.2
2018-Sep-12 14:01N 37°27' E 025°19'0 0.6
2018-Sep-12 13:58N 37°27' E 025°19'0 0.0
2018-Sep-12 13:28N 37°27' E 025°19'0 0.0
2018-Sep-12 10:43N 37°27' E 025°19'0 0.2
2018-Sep-12 10:28N 37°27' E 025°19'0 0.1
2018-Sep-12 10:01N 37°27' E 025°19'0 1.5
2018-Sep-12 09:58N 37°27' E 025°19'0 0.2
2018-Sep-12 09:28N 37°27' E 025°19'0 0.2
2018-Sep-12 09:01N 37°27' E 025°19'0 1.6
2018-Sep-12 08:58N 37°27' E 025°19'0 0.2
2018-Sep-12 08:28N 37°27' E 025°19'0 0.2
2018-Sep-12 08:01N 37°27' E 025°19'0 0.6
2018-Sep-12 07:58N 37°27' E 025°19'0 0.2
2018-Sep-12 07:28N 37°27' E 025°19'0 0.1
2018-Sep-12 07:01N 37°27' E 025°19'0 0.9
2018-Sep-12 06:58N 37°27' E 025°19'0 0.0
2018-Sep-12 06:28N 37°27' E 025°19'0 0.0
2018-Sep-12 06:01N 37°27' E 025°19'0 0.8
2018-Sep-12 05:58N 37°27' E 025°19'0 0.1
2018-Sep-12 05:28N 37°27' E 025°19'0 0.1
2018-Sep-12 05:01N 37°27' E 025°19'0 0.7
2018-Sep-12 04:58N 37°27' E 025°19'0 0.0
2018-Sep-12 04:28N 37°27' E 025°19'0 0.8
2018-Sep-12 04:03N 37°27' E 025°19'0 4.8
2018-Sep-12 04:00N 37°27' E 025°19'5 9.5
2018-Sep-12 03:30N 37°27' E 025°13'510.6
2018-Sep-12 03:03N 37°24' E 025°08'111.1
2018-Sep-12 03:00N 37°24' E 025°08'510.9
2018-Sep-12 02:30N 37°19' E 025°05'510.9
2018-Sep-12 02:03N 37°14' E 025°02'011.6
2018-Sep-12 02:00N 37°14' E 025°02'510.7
2018-Sep-12 01:30N 37°09' E 024°60'  
2018-Sep-07 20:02N 44°28' E 013°42'416.5
2018-Sep-07 19:46N 44°32' E 013°39'416.6
2018-Sep-07 19:30N 44°36' E 013°36'716.6
2018-Sep-07 19:03N 44°42' E 013°30'116.6
2018-Sep-07 19:01N 44°43' E 013°29'916.5
2018-Sep-07 18:29N 44°50' E 013°22'716.7
2018-Sep-07 18:03N 44°56' E 013°17'116.3
2018-Sep-07 18:00N 44°57' E 013°17'816.7
2018-Sep-07 17:31N 45°04' E 013°10'716.6
2018-Sep-07 17:03N 45°10' E 013°05'116.6
2018-Sep-07 17:00N 45°11' E 013°04'816.6
2018-Sep-07 16:31N 45°19' E 013°02'715.6
2018-Sep-07 16:03N 45°25' E 013°06'116.4
2018-Sep-07 16:00N 45°26' E 013°07'816.8
2018-Sep-07 15:30N 45°32' E 013°16'716.1
2018-Sep-07 15:03N 45°35' E 013°25'115.7
2018-Sep-07 15:01N 45°36' E 013°26'1313.3
2018-Sep-07 14:03N 45°33' E 013°44'0 1.7
2018-Sep-07 14:00N 45°33' E 013°44'0 0.1
2018-Sep-07 13:29N 45°33' E 013°44'0 0.0
2018-Sep-07 13:02N 45°33' E 013°44'0 0.0
2018-Sep-07 12:50N 45°33' E 013°44'0 0.0
2018-Sep-07 12:20N 45°33' E 013°44'0 0.1
2018-Sep-07 12:02N 45°33' E 013°44'0 0.0
2018-Sep-07 11:53N 45°33' E 013°44'0 0.0
2018-Sep-07 11:29N 45°33' E 013°44'0 0.0
2018-Sep-07 11:02N 45°33' E 013°44'0 0.4
2018-Sep-07 10:59N 45°33' E 013°44'0 0.0
2018-Sep-07 10:26N 45°33' E 013°44'  
Track history (hours):
 
Tides and Currents Weather Stations Pressure Air Temp Water Temp Dewpoint Dewpoint Depression Visibility Wind Speed Wind Dir Waves Ship Positions

Christina O

Operator: V Ships Leisure SAM

Last reported at 2018-Sep-17 10:10 UTC. Time now 2018-Sep-19 03:05 UTC.
Position N 37°23' E 023°41'.

Length 186 m; draft 6.1 m.

Type: Passenger vessel. MMSI: 308322000.

Date/timePositionNaut miles runAvg speedWind from/ knotsBaromVisibWave heightAir tempDewpointWater temp
2018-Sep-17 10:10N 37°23' E 023°41'4 6.0
2018-Sep-17 09:31N 37°24' E 023°36'1 6.3
2018-Sep-17 09:24N 37°24' E 023°35'2 5.7
2018-Sep-17 09:03N 37°24' E 023°32'0 6.2
2018-Sep-17 09:00N 37°24' E 023°32'4 3.7
2018-Sep-17 08:03N 37°22' E 023°28'0 3.8
2018-Sep-17 08:00N 37°22' E 023°28'4 6.4
2018-Sep-17 07:27N 37°24' E 023°32'410.9
2018-Sep-17 07:03N 37°27' E 023°36'111.8
2018-Sep-17 07:00N 37°28' E 023°36'611.7
2018-Sep-17 06:30N 37°33' E 023°39'4 9.9
2018-Sep-17 06:03N 37°37' E 023°41'0 9.5
2018-Sep-17 06:00N 37°37' E 023°42'5 9.6
2018-Sep-17 05:30N 37°42' E 023°40'510.7
2018-Sep-17 05:03N 37°47' E 023°38'110.6
2018-Sep-17 05:00N 37°47' E 023°38'510.1
2018-Sep-17 04:30N 37°52' E 023°37'4 9.8
2018-Sep-17 04:03N 37°56' E 023°38'0 5.6
2018-Sep-17 04:00N 37°56' E 023°38'0 0.3
2018-Sep-17 03:29N 37°56' E 023°38'0 0.0
2018-Sep-17 03:02N 37°56' E 023°38'0 0.0
2018-Sep-17 02:59N 37°56' E 023°38'0 0.0
2018-Sep-17 02:29N 37°56' E 023°38'0 0.0
2018-Sep-17 02:02N 37°56' E 023°38'0 0.1
2018-Sep-17 01:59N 37°56' E 023°38'0 0.0
2018-Sep-17 01:29N 37°56' E 023°38'0 0.1
2018-Sep-17 01:02N 37°56' E 023°38'0 0.4
2018-Sep-17 00:59N 37°56' E 023°38'0 0.0
2018-Sep-17 00:29N 37°56' E 023°38'0 0.0
2018-Sep-17 00:02N 37°56' E 023°38'0 0.0
2018-Sep-16 23:59N 37°56' E 023°38'0 0.0
2018-Sep-16 23:29N 37°56' E 023°38'0 0.0
2018-Sep-16 23:02N 37°56' E 023°38'0 0.4
2018-Sep-16 22:59N 37°56' E 023°38'0 0.0
2018-Sep-16 22:29N 37°56' E 023°38'0 0.0
2018-Sep-16 22:02N 37°56' E 023°38'0 0.2
2018-Sep-16 21:59N 37°56' E 023°38'0 0.0
2018-Sep-16 21:29N 37°56' E 023°38'0 0.0
2018-Sep-16 21:02N 37°56' E 023°38'0 0.1
2018-Sep-16 20:59N 37°56' E 023°38'0 0.0
2018-Sep-16 20:29N 37°56' E 023°38'0 0.0
2018-Sep-16 20:02N 37°56' E 023°38'0 0.0
2018-Sep-16 19:59N 37°56' E 023°38'0 0.0
2018-Sep-16 19:29N 37°56' E 023°38'0 0.0
2018-Sep-16 19:02N 37°56' E 023°38'0 0.1
2018-Sep-16 18:59N 37°56' E 023°38'0 0.0
2018-Sep-16 18:29N 37°56' E 023°38'0 0.0
2018-Sep-16 18:02N 37°56' E 023°38'0 0.1
2018-Sep-16 17:59N 37°56' E 023°38'0 0.0
2018-Sep-16 17:29N 37°56' E 023°38'0 0.0
2018-Sep-16 17:02N 37°56' E 023°38'0 0.0
2018-Sep-16 16:59N 37°56' E 023°38'0 0.0
2018-Sep-16 16:29N 37°56' E 023°38'0 0.0
2018-Sep-16 16:02N 37°56' E 023°38'0 0.0
2018-Sep-16 15:59N 37°56' E 023°38'0 0.0
2018-Sep-16 15:29N 37°56' E 023°38'0 0.0
2018-Sep-16 15:02N 37°56' E 023°38'0 0.0
2018-Sep-16 14:59N 37°56' E 023°38'0 0.0
2018-Sep-16 13:59N 37°56' E 023°38'0 0.0
2018-Sep-16 13:29N 37°56' E 023°38'0 0.0
2018-Sep-16 13:02N 37°56' E 023°38'0 0.1
2018-Sep-16 12:59N 37°56' E 023°38'0 0.0
2018-Sep-16 12:29N 37°56' E 023°38'0 0.1
2018-Sep-16 12:02N 37°56' E 023°38'0 0.4
2018-Sep-16 11:59N 37°56' E 023°38'0 0.0
2018-Sep-16 11:29N 37°56' E 023°38'0 0.0
2018-Sep-16 11:02N 37°56' E 023°38'0 0.4
2018-Sep-16 10:59N 37°56' E 023°38'0 0.0
2018-Sep-16 10:29N 37°56' E 023°38'0 0.0
2018-Sep-16 10:02N 37°56' E 023°38'0 0.0
2018-Sep-16 09:59N 37°56' E 023°38'0 0.0
2018-Sep-16 09:29N 37°56' E 023°38'0 0.0
2018-Sep-16 09:02N 37°56' E 023°38'0 0.5
2018-Sep-16 08:59N 37°56' E 023°38'0 0.0
2018-Sep-16 08:29N 37°56' E 023°38'0 0.0
2018-Sep-16 08:02N 37°56' E 023°38'0 0.0
2018-Sep-16 07:59N 37°56' E 023°38'0 0.0
2018-Sep-16 07:29N 37°56' E 023°38'0 0.0
2018-Sep-16 07:02N 37°56' E 023°38'0 0.0
2018-Sep-16 06:59N 37°56' E 023°38'0 0.0
2018-Sep-16 06:29N 37°56' E 023°38'0 0.0
2018-Sep-16 06:02N 37°56' E 023°38'0 0.4
2018-Sep-16 05:59N 37°56' E 023°38'0 0.0
2018-Sep-16 05:29N 37°56' E 023°38'0 0.0
2018-Sep-16 05:02N 37°56' E 023°38'0 0.0
2018-Sep-16 04:59N 37°56' E 023°38'0 0.0
2018-Sep-16 04:29N 37°56' E 023°38'0 0.0
2018-Sep-16 04:04N 37°56' E 023°38'0 0.1
2018-Sep-16 04:00N 37°56' E 023°38'2 3.0
2018-Sep-16 03:30N 37°56' E 023°36'1 1.2
2018-Sep-16 03:04N 37°55' E 023°36'0 0.5
2018-Sep-16 03:01N 37°55' E 023°36'5 9.6
2018-Sep-16 02:31N 37°51' E 023°39'511.8
2018-Sep-16 02:04N 37°46' E 023°42'112.2
2018-Sep-16 02:01N 37°45' E 023°42'612.0
2018-Sep-16 01:30N 37°40' E 023°45'612.1
2018-Sep-16 01:01N 37°34' E 023°44'012.7
2018-Sep-16 00:59N 37°34' E 023°44'612.3
2018-Sep-16 00:28N 37°27' E 023°43'712.1
2018-Sep-15 23:51N 37°20' E 023°40'812.1
2018-Sep-15 23:10N 37°14' E 023°33'112.2
2018-Sep-15 23:04N 37°13' E 023°32'112.0
2018-Sep-15 23:01N 37°13' E 023°31'612.0
2018-Sep-15 22:30N 37°09' E 023°25'612.2
2018-Sep-15 22:02N 37°09' E 023°18'012.7
2018-Sep-15 22:00N 37°09' E 023°18'28 1.5
2018-Sep-15 03:26N 37°27' E 022°51'511.5
2018-Sep-15 03:01N 37°23' E 022°54'711.5
2018-Sep-15 02:25N 37°17' E 022°58'1510.5
2018-Sep-15 01:00N 37°09' E 023°14'611.5
2018-Sep-15 00:28N 37°09' E 023°22'511.6
2018-Sep-15 00:01N 37°10' E 023°29'011.6
2018-Sep-14 23:59N 37°10' E 023°29'6211.4
2018-Sep-14 18:36N 37°18' E 024°46'111.2
2018-Sep-14 18:30N 37°19' E 024°47'511.5
2018-Sep-14 18:03N 37°20' E 024°53'111.6
2018-Sep-14 18:00N 37°20' E 024°54'611.4
2018-Sep-14 17:30N 37°22' E 025°00'511.4
2018-Sep-14 17:03N 37°25' E 025°06'111.6
2018-Sep-14 17:00N 37°25' E 025°06'611.7
2018-Sep-14 16:30N 37°29' E 025°12'511.9
2018-Sep-14 16:03N 37°33' E 025°17'111.6
2018-Sep-14 16:00N 37°33' E 025°18'611.5
2018-Sep-14 15:30N 37°37' E 025°23'511.4
2018-Sep-14 15:03N 37°40' E 025°28'111.5
2018-Sep-14 15:00N 37°41' E 025°29'611.6
2018-Sep-14 14:30N 37°44' E 025°34'611.6
2018-Sep-14 14:00N 37°48' E 025°40'26 0.6
2018-Sep-12 18:25N 37°26' E 025°55'411.1
2018-Sep-12 18:03N 37°26' E 025°50'111.4
2018-Sep-12 18:00N 37°26' E 025°50'611.7
2018-Sep-12 17:30N 37°28' E 025°43'512.0
2018-Sep-12 17:03N 37°30' E 025°37'112.2
2018-Sep-12 17:00N 37°30' E 025°36'612.6
2018-Sep-12 16:31N 37°33' E 025°29'510.0
2018-Sep-12 16:04N 37°32' E 025°23'110.4
2018-Sep-12 16:00N 37°32' E 025°22'4 8.0
2018-Sep-12 15:31N 37°30' E 025°18'4 8.0
2018-Sep-12 15:04N 37°27' E 025°19'0 1.1
2018-Sep-12 15:00N 37°27' E 025°19'0 0.2
2018-Sep-12 14:01N 37°27' E 025°19'0 0.6
2018-Sep-12 13:58N 37°27' E 025°19'0 0.0
2018-Sep-12 13:28N 37°27' E 025°19'0 0.0
2018-Sep-12 10:43N 37°27' E 025°19'0 0.2
2018-Sep-12 10:28N 37°27' E 025°19'0 0.1
2018-Sep-12 10:01N 37°27' E 025°19'0 1.5
2018-Sep-12 09:58N 37°27' E 025°19'0 0.2
2018-Sep-12 09:28N 37°27' E 025°19'0 0.2
2018-Sep-12 09:01N 37°27' E 025°19'0 1.6
2018-Sep-12 08:58N 37°27' E 025°19'0 0.2
2018-Sep-12 08:28N 37°27' E 025°19'0 0.2
2018-Sep-12 08:01N 37°27' E 025°19'0 0.6
2018-Sep-12 07:58N 37°27' E 025°19'0 0.2
2018-Sep-12 07:28N 37°27' E 025°19'0 0.1
2018-Sep-12 07:01N 37°27' E 025°19'0 0.9
2018-Sep-12 06:58N 37°27' E 025°19'0 0.0
2018-Sep-12 06:28N 37°27' E 025°19'0 0.0
2018-Sep-12 06:01N 37°27' E 025°19'0 0.8
2018-Sep-12 05:58N 37°27' E 025°19'0 0.1
2018-Sep-12 05:28N 37°27' E 025°19'0 0.1
2018-Sep-12 05:01N 37°27' E 025°19'0 0.7
2018-Sep-12 04:58N 37°27' E 025°19'0 0.0
2018-Sep-12 04:28N 37°27' E 025°19'0 0.8
2018-Sep-12 04:03N 37°27' E 025°19'0 4.8
2018-Sep-12 04:00N 37°27' E 025°19'5 9.5
2018-Sep-12 03:30N 37°27' E 025°13'510.6
2018-Sep-12 03:03N 37°24' E 025°08'111.1
2018-Sep-12 03:00N 37°24' E 025°08'510.9
2018-Sep-12 02:30N 37°19' E 025°05'510.9
2018-Sep-12 02:03N 37°14' E 025°02'011.6
2018-Sep-12 02:00N 37°14' E 025°02'510.7
2018-Sep-12 01:30N 37°09' E 024°60'  
2018-Sep-07 20:02N 44°28' E 013°42'416.5
2018-Sep-07 19:46N 44°32' E 013°39'416.6
2018-Sep-07 19:30N 44°36' E 013°36'716.6
2018-Sep-07 19:03N 44°42' E 013°30'116.6
2018-Sep-07 19:01N 44°43' E 013°29'916.5
2018-Sep-07 18:29N 44°50' E 013°22'716.7
2018-Sep-07 18:03N 44°56' E 013°17'116.3
2018-Sep-07 18:00N 44°57' E 013°17'816.7
2018-Sep-07 17:31N 45°04' E 013°10'716.6
2018-Sep-07 17:03N 45°10' E 013°05'116.6
2018-Sep-07 17:00N 45°11' E 013°04'816.6
2018-Sep-07 16:31N 45°19' E 013°02'715.6
2018-Sep-07 16:03N 45°25' E 013°06'116.4
2018-Sep-07 16:00N 45°26' E 013°07'816.8
2018-Sep-07 15:30N 45°32' E 013°16'716.1
2018-Sep-07 15:03N 45°35' E 013°25'115.7
2018-Sep-07 15:01N 45°36' E 013°26'1313.3
2018-Sep-07 14:03N 45°33' E 013°44'0 1.7
2018-Sep-07 14:00N 45°33' E 013°44'0 0.1
2018-Sep-07 13:29N 45°33' E 013°44'0 0.0
2018-Sep-07 13:02N 45°33' E 013°44'0 0.0
2018-Sep-07 12:50N 45°33' E 013°44'0 0.0
2018-Sep-07 12:20N 45°33' E 013°44'0 0.1
2018-Sep-07 12:02N 45°33' E 013°44'0 0.0
2018-Sep-07 11:53N 45°33' E 013°44'0 0.0
2018-Sep-07 11:29N 45°33' E 013°44'0 0.0
2018-Sep-07 11:02N 45°33' E 013°44'0 0.4
2018-Sep-07 10:59N 45°33' E 013°44'0 0.0
2018-Sep-07 10:26N 45°33' E 013°44'  

Dump ship's entire track history